sensor_id;sensor_type;location;lat;lon;timestamp;temperature;humidity
17346;DHT22;8790;53.590;10.002;2022-08-26T00:01:45;22.80;99.90
17346;DHT22;8790;53.590;10.002;2022-08-26T00:04:17;22.80;99.90
17346;DHT22;8790;53.590;10.002;2022-08-26T00:06:48;22.80;99.90
17346;DHT22;8790;53.590;10.002;2022-08-26T00:09:20;22.80;99.90
17346;DHT22;8790;53.590;10.002;2022-08-26T00:11:53;22.70;99.90
17346;DHT22;8790;53.590;10.002;2022-08-26T00:14:25;22.70;99.90
17346;DHT22;8790;53.590;10.002;2022-08-26T00:16:57;22.80;99.90
17346;DHT22;8790;53.590;10.002;2022-08-26T00:19:29;22.70;99.90
17346;DHT22;8790;53.590;10.002;2022-08-26T00:22:00;22.70;99.90
17346;DHT22;8790;53.590;10.002;2022-08-26T00:24:32;22.70;99.90
17346;DHT22;8790;53.590;10.002;2022-08-26T00:27:05;22.60;99.90
17346;DHT22;8790;53.590;10.002;2022-08-26T00:29:37;22.60;99.90
17346;DHT22;8790;53.590;10.002;2022-08-26T00:32:09;22.60;99.90
17346;DHT22;8790;53.590;10.002;2022-08-26T00:34:41;22.50;99.90
17346;DHT22;8790;53.590;10.002;2022-08-26T00:37:13;22.50;99.90
17346;DHT22;8790;53.590;10.002;2022-08-26T00:39:45;22.50;99.90
17346;DHT22;8790;53.590;10.002;2022-08-26T00:42:18;22.50;99.90
17346;DHT22;8790;53.590;10.002;2022-08-26T00:44:50;22.50;99.90
17346;DHT22;8790;53.590;10.002;2022-08-26T00:47:26;22.50;99.90
17346;DHT22;8790;53.590;10.002;2022-08-26T00:49:59;22.50;99.90
17346;DHT22;8790;53.590;10.002;2022-08-26T00:52:32;22.50;99.90
17346;DHT22;8790;53.590;10.002;2022-08-26T00:55:08;22.50;99.90
17346;DHT22;8790;53.590;10.002;2022-08-26T00:57:43;22.50;99.90
17346;DHT22;8790;53.590;10.002;2022-08-26T01:00:19;22.50;99.90
17346;DHT22;8790;53.590;10.002;2022-08-26T01:02:52;22.40;99.90
17346;DHT22;8790;53.590;10.002;2022-08-26T01:05:25;22.40;99.90
17346;DHT22;8790;53.590;10.002;2022-08-26T01:07:57;22.40;99.90
17346;DHT22;8790;53.590;10.002;2022-08-26T01:10:29;22.40;99.90
17346;DHT22;8790;53.590;10.002;2022-08-26T01:13:06;22.40;99.90
17346;DHT22;8790;53.590;10.002;2022-08-26T01:15:42;22.40;99.90
17346;DHT22;8790;53.590;10.002;2022-08-26T01:18:14;22.40;99.90
17346;DHT22;8790;53.590;10.002;2022-08-26T01:20:53;22.40;99.90
17346;DHT22;8790;53.590;10.002;2022-08-26T01:23:31;22.40;99.90
17346;DHT22;8790;53.590;10.002;2022-08-26T01:26:07;22.40;99.90
17346;DHT22;8790;53.590;10.002;2022-08-26T01:28:40;22.30;99.90
17346;DHT22;8790;53.590;10.002;2022-08-26T01:31:14;22.30;99.90
17346;DHT22;8790;53.590;10.002;2022-08-26T01:33:50;22.30;99.90
17346;DHT22;8790;53.590;10.002;2022-08-26T01:36:23;22.30;99.90
17346;DHT22;8790;53.590;10.002;2022-08-26T01:38:56;22.30;99.90
17346;DHT22;8790;53.590;10.002;2022-08-26T01:41:28;22.30;99.90
17346;DHT22;8790;53.590;10.002;2022-08-26T01:44:02;22.30;99.90
17346;DHT22;8790;53.590;10.002;2022-08-26T01:46:34;22.30;99.90
17346;DHT22;8790;53.590;10.002;2022-08-26T01:49:07;22.20;99.90
17346;DHT22;8790;53.590;10.002;2022-08-26T01:51:40;22.20;99.90
17346;DHT22;8790;53.590;10.002;2022-08-26T01:54:15;22.20;99.90
17346;DHT22;8790;53.590;10.002;2022-08-26T01:56:47;22.20;99.90
17346;DHT22;8790;53.590;10.002;2022-08-26T01:59:19;22.20;99.90
17346;DHT22;8790;53.590;10.002;2022-08-26T02:01:52;22.20;99.90
17346;DHT22;8790;53.590;10.002;2022-08-26T02:04:27;22.10;99.90
17346;DHT22;8790;53.590;10.002;2022-08-26T02:07:02;22.10;99.90
17346;DHT22;8790;53.590;10.002;2022-08-26T02:09:38;22.10;99.90
17346;DHT22;8790;53.590;10.002;2022-08-26T02:12:11;22.10;99.90
17346;DHT22;8790;53.590;10.002;2022-08-26T02:14:47;22.00;99.90
17346;DHT22;8790;53.590;10.002;2022-08-26T02:17:25;22.00;99.90
17346;DHT22;8790;53.590;10.002;2022-08-26T02:19:59;22.10;99.90
17346;DHT22;8790;53.590;10.002;2022-08-26T02:22:31;22.00;99.90
17346;DHT22;8790;53.590;10.002;2022-08-26T02:25:11;22.00;99.90
17346;DHT22;8790;53.590;10.002;2022-08-26T02:27:46;22.00;99.90
17346;DHT22;8790;53.590;10.002;2022-08-26T02:30:21;22.00;99.90
17346;DHT22;8790;53.590;10.002;2022-08-26T02:32:53;22.00;99.90
17346;DHT22;8790;53.590;10.002;2022-08-26T02:35:25;21.90;99.90
17346;DHT22;8790;53.590;10.002;2022-08-26T02:37:58;22.00;99.90
17346;DHT22;8790;53.590;10.002;2022-08-26T02:40:34;22.00;99.90
17346;DHT22;8790;53.590;10.002;2022-08-26T02:43:06;21.90;99.90
17346;DHT22;8790;53.590;10.002;2022-08-26T02:45:38;21.90;99.90
17346;DHT22;8790;53.590;10.002;2022-08-26T02:48:13;21.90;99.90
17346;DHT22;8790;53.590;10.002;2022-08-26T02:50:46;21.80;99.90
17346;DHT22;8790;53.590;10.002;2022-08-26T02:53:18;21.90;99.90
17346;DHT22;8790;53.590;10.002;2022-08-26T02:55:51;21.80;99.90
17346;DHT22;8790;53.590;10.002;2022-08-26T02:58:23;21.80;99.90
17346;DHT22;8790;53.590;10.002;2022-08-26T03:00:55;21.80;99.90
17346;DHT22;8790;53.590;10.002;2022-08-26T03:03:27;21.80;99.90
17346;DHT22;8790;53.590;10.002;2022-08-26T03:05:59;21.80;99.90
17346;DHT22;8790;53.590;10.002;2022-08-26T03:08:30;21.80;99.90
17346;DHT22;8790;53.590;10.002;2022-08-26T03:11:03;21.80;99.90
17346;DHT22;8790;53.590;10.002;2022-08-26T03:13:35;21.70;99.90
17346;DHT22;8790;53.590;10.002;2022-08-26T03:16:07;21.70;99.90
17346;DHT22;8790;53.590;10.002;2022-08-26T03:18:39;21.70;99.90
17346;DHT22;8790;53.590;10.002;2022-08-26T03:21:14;21.60;99.90
17346;DHT22;8790;53.590;10.002;2022-08-26T03:23:45;21.70;99.90
17346;DHT22;8790;53.590;10.002;2022-08-26T03:26:18;21.70;99.90
17346;DHT22;8790;53.590;10.002;2022-08-26T03:28:50;21.60;99.90
17346;DHT22;8790;53.590;10.002;2022-08-26T03:31:40;21.60;99.90
17346;DHT22;8790;53.590;10.002;2022-08-26T03:34:11;21.60;99.90
17346;DHT22;8790;53.590;10.002;2022-08-26T03:36:44;21.60;99.90
17346;DHT22;8790;53.590;10.002;2022-08-26T03:39:16;21.60;99.90
17346;DHT22;8790;53.590;10.002;2022-08-26T03:41:49;21.50;99.90
17346;DHT22;8790;53.590;10.002;2022-08-26T03:44:21;21.60;99.90
17346;DHT22;8790;53.590;10.002;2022-08-26T03:46:53;21.60;99.90
17346;DHT22;8790;53.590;10.002;2022-08-26T03:49:24;21.60;99.90
17346;DHT22;8790;53.590;10.002;2022-08-26T03:51:56;21.60;99.90
17346;DHT22;8790;53.590;10.002;2022-08-26T03:54:28;21.60;99.90
17346;DHT22;8790;53.590;10.002;2022-08-26T03:57:01;21.60;99.90
17346;DHT22;8790;53.590;10.002;2022-08-26T03:59:32;21.50;99.90
17346;DHT22;8790;53.590;10.002;2022-08-26T04:02:04;21.50;99.90
17346;DHT22;8790;53.590;10.002;2022-08-26T04:04:36;21.50;99.90
17346;DHT22;8790;53.590;10.002;2022-08-26T04:07:07;21.40;99.90
17346;DHT22;8790;53.590;10.002;2022-08-26T04:09:39;21.40;99.90
17346;DHT22;8790;53.590;10.002;2022-08-26T04:12:12;21.50;99.90
17346;DHT22;8790;53.590;10.002;2022-08-26T04:14:44;21.40;99.90
17346;DHT22;8790;53.590;10.002;2022-08-26T04:17:16;21.50;99.90
17346;DHT22;8790;53.590;10.002;2022-08-26T04:19:48;21.50;99.90
17346;DHT22;8790;53.590;10.002;2022-08-26T04:22:20;21.50;99.90
17346;DHT22;8790;53.590;10.002;2022-08-26T04:24:52;21.40;99.90
17346;DHT22;8790;53.590;10.002;2022-08-26T04:27:25;21.40;99.90
17346;DHT22;8790;53.590;10.002;2022-08-26T04:29:56;21.50;99.90
17346;DHT22;8790;53.590;10.002;2022-08-26T04:32:28;21.40;99.90
17346;DHT22;8790;53.590;10.002;2022-08-26T04:35:00;21.40;99.90
17346;DHT22;8790;53.590;10.002;2022-08-26T04:37:33;21.40;99.90
17346;DHT22;8790;53.590;10.002;2022-08-26T04:40:06;21.30;99.90
17346;DHT22;8790;53.590;10.002;2022-08-26T04:42:40;21.40;99.90
17346;DHT22;8790;53.590;10.002;2022-08-26T04:45:12;21.30;99.90
17346;DHT22;8790;53.590;10.002;2022-08-26T04:47:44;21.30;99.90
17346;DHT22;8790;53.590;10.002;2022-08-26T04:50:16;21.30;99.90
17346;DHT22;8790;53.590;10.002;2022-08-26T04:52:54;21.30;99.90
17346;DHT22;8790;53.590;10.002;2022-08-26T04:55:26;21.30;99.90
17346;DHT22;8790;53.590;10.002;2022-08-26T04:57:59;21.30;99.90
17346;DHT22;8790;53.590;10.002;2022-08-26T05:00:30;21.30;99.90
17346;DHT22;8790;53.590;10.002;2022-08-26T05:03:02;21.30;99.90
17346;DHT22;8790;53.590;10.002;2022-08-26T05:05:37;21.30;99.90
17346;DHT22;8790;53.590;10.002;2022-08-26T05:08:11;21.30;99.90
17346;DHT22;8790;53.590;10.002;2022-08-26T05:10:51;21.30;99.90
17346;DHT22;8790;53.590;10.002;2022-08-26T05:13:26;21.40;99.90
17346;DHT22;8790;53.590;10.002;2022-08-26T05:16:02;21.40;99.90
17346;DHT22;8790;53.590;10.002;2022-08-26T05:18:34;21.40;99.90
17346;DHT22;8790;53.590;10.002;2022-08-26T05:21:07;21.40;99.90
17346;DHT22;8790;53.590;10.002;2022-08-26T05:23:41;21.50;99.90
17346;DHT22;8790;53.590;10.002;2022-08-26T05:26:13;21.40;99.90
17346;DHT22;8790;53.590;10.002;2022-08-26T05:28:46;21.40;99.90
17346;DHT22;8790;53.590;10.002;2022-08-26T05:31:20;21.40;99.90
17346;DHT22;8790;53.590;10.002;2022-08-26T05:33:55;21.40;99.90
17346;DHT22;8790;53.590;10.002;2022-08-26T05:36:30;21.40;99.90
17346;DHT22;8790;53.590;10.002;2022-08-26T05:39:04;21.40;99.90
17346;DHT22;8790;53.590;10.002;2022-08-26T05:41:41;21.40;99.90
17346;DHT22;8790;53.590;10.002;2022-08-26T05:44:16;21.40;99.90
17346;DHT22;8790;53.590;10.002;2022-08-26T05:46:50;21.50;99.90
17346;DHT22;8790;53.590;10.002;2022-08-26T05:49:22;21.50;99.90
17346;DHT22;8790;53.590;10.002;2022-08-26T05:51:53;21.50;99.90
17346;DHT22;8790;53.590;10.002;2022-08-26T05:54:25;21.50;99.90
17346;DHT22;8790;53.590;10.002;2022-08-26T05:56:57;21.60;99.90
17346;DHT22;8790;53.590;10.002;2022-08-26T05:59:30;21.60;99.90
17346;DHT22;8790;53.590;10.002;2022-08-26T06:02:02;21.60;99.90
17346;DHT22;8790;53.590;10.002;2022-08-26T06:04:34;21.50;99.90
17346;DHT22;8790;53.590;10.002;2022-08-26T06:07:06;21.50;99.90
17346;DHT22;8790;53.590;10.002;2022-08-26T06:09:37;21.60;99.90
17346;DHT22;8790;53.590;10.002;2022-08-26T06:12:09;21.60;99.90
17346;DHT22;8790;53.590;10.002;2022-08-26T06:14:43;21.60;99.90
17346;DHT22;8790;53.590;10.002;2022-08-26T06:17:15;21.70;99.90
17346;DHT22;8790;53.590;10.002;2022-08-26T06:19:47;21.70;99.90
17346;DHT22;8790;53.590;10.002;2022-08-26T06:22:19;21.70;99.90
17346;DHT22;8790;53.590;10.002;2022-08-26T06:25:08;21.70;99.90
17346;DHT22;8790;53.590;10.002;2022-08-26T06:27:58;21.70;99.90
17346;DHT22;8790;53.590;10.002;2022-08-26T06:30:31;21.80;99.90
17346;DHT22;8790;53.590;10.002;2022-08-26T06:33:03;21.80;99.90
17346;DHT22;8790;53.590;10.002;2022-08-26T06:35:36;21.80;99.90
17346;DHT22;8790;53.590;10.002;2022-08-26T06:38:08;21.90;99.90
17346;DHT22;8790;53.590;10.002;2022-08-26T06:40:42;21.90;99.90
17346;DHT22;8790;53.590;10.002;2022-08-26T06:43:14;21.90;99.90
17346;DHT22;8790;53.590;10.002;2022-08-26T06:45:48;22.00;99.90
17346;DHT22;8790;53.590;10.002;2022-08-26T06:48:20;22.00;99.90
17346;DHT22;8790;53.590;10.002;2022-08-26T06:51:01;22.10;99.90
17346;DHT22;8790;53.590;10.002;2022-08-26T06:53:32;22.00;99.90
17346;DHT22;8790;53.590;10.002;2022-08-26T06:56:06;22.10;99.90
17346;DHT22;8790;53.590;10.002;2022-08-26T06:58:38;22.10;99.90
17346;DHT22;8790;53.590;10.002;2022-08-26T07:01:16;22.20;99.90
17346;DHT22;8790;53.590;10.002;2022-08-26T07:03:50;22.10;99.90
17346;DHT22;8790;53.590;10.002;2022-08-26T07:06:24;22.20;99.90
17346;DHT22;8790;53.590;10.002;2022-08-26T07:09:00;22.30;99.90
17346;DHT22;8790;53.590;10.002;2022-08-26T07:11:34;22.30;99.90
17346;DHT22;8790;53.590;10.002;2022-08-26T07:14:07;22.30;99.90
17346;DHT22;8790;53.590;10.002;2022-08-26T07:16:40;22.30;99.90
17346;DHT22;8790;53.590;10.002;2022-08-26T07:19:12;22.40;99.90
17346;DHT22;8790;53.590;10.002;2022-08-26T07:21:43;22.40;99.90
17346;DHT22;8790;53.590;10.002;2022-08-26T07:24:15;22.40;99.90
17346;DHT22;8790;53.590;10.002;2022-08-26T07:26:47;22.50;99.90
17346;DHT22;8790;53.590;10.002;2022-08-26T07:29:19;22.50;99.90
17346;DHT22;8790;53.590;10.002;2022-08-26T07:31:52;22.50;99.90
17346;DHT22;8790;53.590;10.002;2022-08-26T07:34:23;22.60;99.90
17346;DHT22;8790;53.590;10.002;2022-08-26T07:36:55;22.60;99.90
17346;DHT22;8790;53.590;10.002;2022-08-26T07:39:28;22.70;99.90
17346;DHT22;8790;53.590;10.002;2022-08-26T07:42:00;22.70;99.90
17346;DHT22;8790;53.590;10.002;2022-08-26T07:44:33;22.80;99.90
17346;DHT22;8790;53.590;10.002;2022-08-26T07:47:07;22.90;99.90
17346;DHT22;8790;53.590;10.002;2022-08-26T07:49:39;22.90;99.90
17346;DHT22;8790;53.590;10.002;2022-08-26T07:52:11;23.00;99.90
17346;DHT22;8790;53.590;10.002;2022-08-26T07:54:42;23.00;99.90
17346;DHT22;8790;53.590;10.002;2022-08-26T07:57:14;23.10;99.90
17346;DHT22;8790;53.590;10.002;2022-08-26T07:59:46;23.20;99.90
17346;DHT22;8790;53.590;10.002;2022-08-26T08:02:19;23.20;99.90
17346;DHT22;8790;53.590;10.002;2022-08-26T08:04:52;23.20;99.90
17346;DHT22;8790;53.590;10.002;2022-08-26T08:07:24;23.30;99.90
17346;DHT22;8790;53.590;10.002;2022-08-26T08:09:56;23.30;99.90
17346;DHT22;8790;53.590;10.002;2022-08-26T08:12:27;23.40;99.90
17346;DHT22;8790;53.590;10.002;2022-08-26T08:14:59;23.40;99.90
17346;DHT22;8790;53.590;10.002;2022-08-26T08:17:32;23.50;99.90
17346;DHT22;8790;53.590;10.002;2022-08-26T08:20:05;23.50;99.90
17346;DHT22;8790;53.590;10.002;2022-08-26T08:22:39;23.50;99.90
17346;DHT22;8790;53.590;10.002;2022-08-26T08:25:15;23.60;99.90
17346;DHT22;8790;53.590;10.002;2022-08-26T08:27:56;23.70;99.90
17346;DHT22;8790;53.590;10.002;2022-08-26T08:30:28;23.70;99.90
17346;DHT22;8790;53.590;10.002;2022-08-26T08:33:04;23.70;99.90
17346;DHT22;8790;53.590;10.002;2022-08-26T08:35:36;23.70;99.90
17346;DHT22;8790;53.590;10.002;2022-08-26T08:38:11;23.80;99.90
17346;DHT22;8790;53.590;10.002;2022-08-26T08:40:54;23.90;99.90
17346;DHT22;8790;53.590;10.002;2022-08-26T08:43:30;23.80;99.90
17346;DHT22;8790;53.590;10.002;2022-08-26T08:46:09;23.90;99.90
17346;DHT22;8790;53.590;10.002;2022-08-26T08:48:45;23.90;99.90
17346;DHT22;8790;53.590;10.002;2022-08-26T08:51:22;23.90;99.90
17346;DHT22;8790;53.590;10.002;2022-08-26T08:53:57;23.90;99.90
17346;DHT22;8790;53.590;10.002;2022-08-26T08:56:32;23.90;99.90
17346;DHT22;8790;53.590;10.002;2022-08-26T08:59:13;23.90;99.90
17346;DHT22;8790;53.590;10.002;2022-08-26T09:01:58;23.90;99.90
17346;DHT22;8790;53.590;10.002;2022-08-26T09:05:04;23.90;99.90
17346;DHT22;8790;53.590;10.002;2022-08-26T09:07:38;23.90;99.90
17346;DHT22;8790;53.590;10.002;2022-08-26T09:10:29;23.90;99.90
17346;DHT22;8790;53.590;10.002;2022-08-26T09:13:05;23.90;99.90
17346;DHT22;8790;53.590;10.002;2022-08-26T09:15:50;24.10;99.90
17346;DHT22;8790;53.590;10.002;2022-08-26T09:18:42;24.10;99.90
17346;DHT22;8790;53.590;10.002;2022-08-26T09:21:17;24.10;99.90
17346;DHT22;8790;53.590;10.002;2022-08-26T09:23:50;24.20;99.90
17346;DHT22;8790;53.590;10.002;2022-08-26T09:26:24;24.10;99.90
17346;DHT22;8790;53.590;10.002;2022-08-26T09:28:58;24.20;99.90
17346;DHT22;8790;53.590;10.002;2022-08-26T09:31:32;24.20;99.90
17346;DHT22;8790;53.590;10.002;2022-08-26T09:34:11;24.20;99.90
17346;DHT22;8790;53.590;10.002;2022-08-26T09:36:46;24.20;99.90
17346;DHT22;8790;53.590;10.002;2022-08-26T09:39:31;24.30;99.90
17346;DHT22;8790;53.590;10.002;2022-08-26T09:42:09;24.30;99.90
17346;DHT22;8790;53.590;10.002;2022-08-26T09:44:53;24.30;99.90
17346;DHT22;8790;53.590;10.002;2022-08-26T09:47:28;24.30;99.90
17346;DHT22;8790;53.590;10.002;2022-08-26T09:50:04;24.40;99.90
17346;DHT22;8790;53.590;10.002;2022-08-26T09:52:40;24.30;99.90
17346;DHT22;8790;53.590;10.002;2022-08-26T09:55:18;24.40;99.90
17346;DHT22;8790;53.590;10.002;2022-08-26T09:57:52;24.40;99.90
17346;DHT22;8790;53.590;10.002;2022-08-26T10:00:28;24.40;99.90
17346;DHT22;8790;53.590;10.002;2022-08-26T10:03:02;24.40;99.90
17346;DHT22;8790;53.590;10.002;2022-08-26T10:05:39;24.40;99.90
17346;DHT22;8790;53.590;10.002;2022-08-26T10:08:32;24.40;99.90
17346;DHT22;8790;53.590;10.002;2022-08-26T10:11:10;24.40;99.90
17346;DHT22;8790;53.590;10.002;2022-08-26T10:13:48;24.40;99.90
17346;DHT22;8790;53.590;10.002;2022-08-26T10:16:24;24.40;99.90
17346;DHT22;8790;53.590;10.002;2022-08-26T10:19:01;24.40;99.90
17346;DHT22;8790;53.590;10.002;2022-08-26T10:21:37;24.40;99.90
17346;DHT22;8790;53.590;10.002;2022-08-26T10:24:15;24.40;99.90
17346;DHT22;8790;53.590;10.002;2022-08-26T10:26:57;24.40;99.90
17346;DHT22;8790;53.590;10.002;2022-08-26T10:29:34;24.40;99.90
17346;DHT22;8790;53.590;10.002;2022-08-26T10:32:10;24.40;99.90
17346;DHT22;8790;53.590;10.002;2022-08-26T10:34:43;24.40;99.90
17346;DHT22;8790;53.590;10.002;2022-08-26T10:37:18;24.50;99.90
17346;DHT22;8790;53.590;10.002;2022-08-26T10:39:54;24.50;99.90
17346;DHT22;8790;53.590;10.002;2022-08-26T10:42:31;24.50;99.90
17346;DHT22;8790;53.590;10.002;2022-08-26T10:45:07;24.50;99.90
17346;DHT22;8790;53.590;10.002;2022-08-26T10:47:43;24.50;99.90
17346;DHT22;8790;53.590;10.002;2022-08-26T10:50:17;24.50;99.90
17346;DHT22;8790;53.590;10.002;2022-08-26T10:52:56;24.50;99.90
17346;DHT22;8790;53.590;10.002;2022-08-26T10:55:35;24.50;99.90
17346;DHT22;8790;53.590;10.002;2022-08-26T10:58:27;24.50;99.90
17346;DHT22;8790;53.590;10.002;2022-08-26T11:01:07;24.50;99.90
17346;DHT22;8790;53.590;10.002;2022-08-26T11:04:22;24.50;99.90
17346;DHT22;8790;53.590;10.002;2022-08-26T11:07:34;24.60;99.90
17346;DHT22;8790;53.590;10.002;2022-08-26T11:13:58;24.60;99.90
17346;DHT22;8790;53.590;10.002;2022-08-26T11:16:32;24.60;99.90
17346;DHT22;8790;53.590;10.002;2022-08-26T11:19:05;24.60;99.90
17346;DHT22;8790;53.590;10.002;2022-08-26T11:21:49;24.70;99.90
17346;DHT22;8790;53.590;10.002;2022-08-26T11:24:41;24.70;99.90
17346;DHT22;8790;53.590;10.002;2022-08-26T11:30:47;24.80;99.90
17346;DHT22;8790;53.590;10.002;2022-08-26T11:33:50;24.80;99.90
17346;DHT22;8790;53.590;10.002;2022-08-26T11:36:56;24.80;99.90
17346;DHT22;8790;53.590;10.002;2022-08-26T11:39:34;24.70;99.90
17346;DHT22;8790;53.590;10.002;2022-08-26T11:42:24;24.70;99.90
17346;DHT22;8790;53.590;10.002;2022-08-26T11:44:58;24.70;99.90
17346;DHT22;8790;53.590;10.002;2022-08-26T11:47:32;24.80;99.90
17346;DHT22;8790;53.590;10.002;2022-08-26T11:50:09;24.80;99.90
17346;DHT22;8790;53.590;10.002;2022-08-26T11:52:50;25.00;99.90
17346;DHT22;8790;53.590;10.002;2022-08-26T11:55:33;25.00;99.90
17346;DHT22;8790;53.590;10.002;2022-08-26T11:58:06;25.00;99.90
17346;DHT22;8790;53.590;10.002;2022-08-26T12:00:49;25.10;99.90
17346;DHT22;8790;53.590;10.002;2022-08-26T12:03:26;25.20;99.90
17346;DHT22;8790;53.590;10.002;2022-08-26T12:06:13;25.40;99.90
17346;DHT22;8790;53.590;10.002;2022-08-26T12:08:50;25.50;99.90
17346;DHT22;8790;53.590;10.002;2022-08-26T12:11:25;25.50;99.90
17346;DHT22;8790;53.590;10.002;2022-08-26T12:13:59;25.50;99.90
17346;DHT22;8790;53.590;10.002;2022-08-26T12:16:34;25.50;99.90
17346;DHT22;8790;53.590;10.002;2022-08-26T12:19:26;25.40;99.90
17346;DHT22;8790;53.590;10.002;2022-08-26T12:22:02;25.50;99.90
17346;DHT22;8790;53.590;10.002;2022-08-26T12:24:35;25.60;99.90
17346;DHT22;8790;53.590;10.002;2022-08-26T12:27:16;25.50;99.90
17346;DHT22;8790;53.590;10.002;2022-08-26T12:30:00;25.50;99.90
17346;DHT22;8790;53.590;10.002;2022-08-26T12:32:33;25.50;99.90
17346;DHT22;8790;53.590;10.002;2022-08-26T12:35:08;25.50;99.90
17346;DHT22;8790;53.590;10.002;2022-08-26T12:37:46;25.50;99.90
17346;DHT22;8790;53.590;10.002;2022-08-26T12:40:30;25.50;99.90
17346;DHT22;8790;53.590;10.002;2022-08-26T12:43:05;25.60;99.90
17346;DHT22;8790;53.590;10.002;2022-08-26T12:45:39;25.60;99.90
17346;DHT22;8790;53.590;10.002;2022-08-26T12:48:20;25.80;99.90
17346;DHT22;8790;53.590;10.002;2022-08-26T12:50:57;25.80;99.90
17346;DHT22;8790;53.590;10.002;2022-08-26T12:53:31;25.90;99.90
17346;DHT22;8790;53.590;10.002;2022-08-26T12:56:18;25.80;99.90
17346;DHT22;8790;53.590;10.002;2022-08-26T12:59:06;25.80;99.90
17346;DHT22;8790;53.590;10.002;2022-08-26T13:01:40;25.80;99.90
17346;DHT22;8790;53.590;10.002;2022-08-26T13:04:39;25.80;99.90
17346;DHT22;8790;53.590;10.002;2022-08-26T13:07:14;25.80;99.90
17346;DHT22;8790;53.590;10.002;2022-08-26T13:09:51;25.80;99.90
17346;DHT22;8790;53.590;10.002;2022-08-26T13:12:28;25.70;99.90
17346;DHT22;8790;53.590;10.002;2022-08-26T13:15:01;25.70;99.90
17346;DHT22;8790;53.590;10.002;2022-08-26T13:17:33;25.70;99.90
17346;DHT22;8790;53.590;10.002;2022-08-26T13:20:06;25.60;99.90
17346;DHT22;8790;53.590;10.002;2022-08-26T13:22:39;25.60;99.90
17346;DHT22;8790;53.590;10.002;2022-08-26T13:25:11;25.60;99.90
17346;DHT22;8790;53.590;10.002;2022-08-26T13:27:43;25.60;99.90
17346;DHT22;8790;53.590;10.002;2022-08-26T13:30:15;25.60;99.90
17346;DHT22;8790;53.590;10.002;2022-08-26T13:32:47;25.60;99.90
17346;DHT22;8790;53.590;10.002;2022-08-26T13:35:20;25.60;99.90
17346;DHT22;8790;53.590;10.002;2022-08-26T13:37:53;25.60;99.90
17346;DHT22;8790;53.590;10.002;2022-08-26T13:40:25;25.50;99.90
17346;DHT22;8790;53.590;10.002;2022-08-26T13:42:57;25.50;99.90
17346;DHT22;8790;53.590;10.002;2022-08-26T13:45:28;25.50;99.90
17346;DHT22;8790;53.590;10.002;2022-08-26T13:48:01;25.50;99.90
17346;DHT22;8790;53.590;10.002;2022-08-26T13:50:33;25.50;99.90
17346;DHT22;8790;53.590;10.002;2022-08-26T13:53:06;25.50;99.90
17346;DHT22;8790;53.590;10.002;2022-08-26T13:55:39;25.50;99.90
17346;DHT22;8790;53.590;10.002;2022-08-26T13:58:11;25.50;99.90
17346;DHT22;8790;53.590;10.002;2022-08-26T14:00:43;25.50;99.90
17346;DHT22;8790;53.590;10.002;2022-08-26T14:03:15;25.50;99.90
17346;DHT22;8790;53.590;10.002;2022-08-26T14:05:47;25.50;99.90
17346;DHT22;8790;53.590;10.002;2022-08-26T14:08:21;25.50;99.90
17346;DHT22;8790;53.590;10.002;2022-08-26T14:10:53;25.50;99.90
17346;DHT22;8790;53.590;10.002;2022-08-26T14:13:25;25.50;99.90
17346;DHT22;8790;53.590;10.002;2022-08-26T14:15:57;25.50;99.90
17346;DHT22;8790;53.590;10.002;2022-08-26T14:18:32;25.50;99.90
17346;DHT22;8790;53.590;10.002;2022-08-26T14:21:05;25.50;99.90
17346;DHT22;8790;53.590;10.002;2022-08-26T14:23:38;25.50;99.90
17346;DHT22;8790;53.590;10.002;2022-08-26T14:26:10;25.50;99.90
17346;DHT22;8790;53.590;10.002;2022-08-26T14:28:42;25.60;99.90
17346;DHT22;8790;53.590;10.002;2022-08-26T14:31:14;25.60;99.90
17346;DHT22;8790;53.590;10.002;2022-08-26T14:33:46;25.60;99.90
17346;DHT22;8790;53.590;10.002;2022-08-26T14:36:18;25.60;99.90
17346;DHT22;8790;53.590;10.002;2022-08-26T14:39:02;25.60;99.90
17346;DHT22;8790;53.590;10.002;2022-08-26T14:41:42;25.60;99.90
17346;DHT22;8790;53.590;10.002;2022-08-26T14:44:15;25.60;99.90
17346;DHT22;8790;53.590;10.002;2022-08-26T14:46:49;25.90;99.90
17346;DHT22;8790;53.590;10.002;2022-08-26T14:49:23;26.10;99.90
17346;DHT22;8790;53.590;10.002;2022-08-26T14:51:56;26.40;99.90
17346;DHT22;8790;53.590;10.002;2022-08-26T14:54:29;26.50;99.90
17346;DHT22;8790;53.590;10.002;2022-08-26T14:57:03;26.70;99.90
17346;DHT22;8790;53.590;10.002;2022-08-26T14:59:36;26.90;99.90
17346;DHT22;8790;53.590;10.002;2022-08-26T15:02:10;27.00;99.90
17346;DHT22;8790;53.590;10.002;2022-08-26T15:04:42;27.30;99.90
17346;DHT22;8790;53.590;10.002;2022-08-26T15:07:14;27.50;99.90
17346;DHT22;8790;53.590;10.002;2022-08-26T15:09:47;27.70;99.90
17346;DHT22;8790;53.590;10.002;2022-08-26T15:12:19;27.60;99.90
17346;DHT22;8790;53.590;10.002;2022-08-26T15:14:51;27.50;99.90
17346;DHT22;8790;53.590;10.002;2022-08-26T15:17:23;27.30;99.90
17346;DHT22;8790;53.590;10.002;2022-08-26T15:19:55;27.10;99.90
17346;DHT22;8790;53.590;10.002;2022-08-26T15:22:27;27.00;99.90
17346;DHT22;8790;53.590;10.002;2022-08-26T15:25:00;26.90;99.90
17346;DHT22;8790;53.590;10.002;2022-08-26T15:27:32;26.70;99.90
17346;DHT22;8790;53.590;10.002;2022-08-26T15:30:06;26.80;99.90
17346;DHT22;8790;53.590;10.002;2022-08-26T15:32:39;26.70;99.90
17346;DHT22;8790;53.590;10.002;2022-08-26T15:35:10;26.60;99.90
17346;DHT22;8790;53.590;10.002;2022-08-26T15:37:42;26.50;99.90
17346;DHT22;8790;53.590;10.002;2022-08-26T15:40:15;26.50;99.90
17346;DHT22;8790;53.590;10.002;2022-08-26T15:42:47;26.50;99.90
17346;DHT22;8790;53.590;10.002;2022-08-26T15:45:19;26.50;99.90
17346;DHT22;8790;53.590;10.002;2022-08-26T15:47:51;26.40;99.90
17346;DHT22;8790;53.590;10.002;2022-08-26T15:50:22;26.10;99.90
17346;DHT22;8790;53.590;10.002;2022-08-26T15:52:54;26.10;99.90
17346;DHT22;8790;53.590;10.002;2022-08-26T15:55:27;26.00;99.90
17346;DHT22;8790;53.590;10.002;2022-08-26T15:57:59;25.90;99.90
17346;DHT22;8790;53.590;10.002;2022-08-26T16:00:31;25.70;99.90
17346;DHT22;8790;53.590;10.002;2022-08-26T16:03:03;25.70;99.90
17346;DHT22;8790;53.590;10.002;2022-08-26T16:05:37;25.60;99.90
17346;DHT22;8790;53.590;10.002;2022-08-26T16:08:09;25.60;99.90
17346;DHT22;8790;53.590;10.002;2022-08-26T16:10:44;25.50;99.90
17346;DHT22;8790;53.590;10.002;2022-08-26T16:13:17;25.50;99.90
17346;DHT22;8790;53.590;10.002;2022-08-26T16:15:49;25.50;99.90
17346;DHT22;8790;53.590;10.002;2022-08-26T16:18:23;25.40;99.90
17346;DHT22;8790;53.590;10.002;2022-08-26T16:20:55;25.30;99.90
17346;DHT22;8790;53.590;10.002;2022-08-26T16:23:27;25.30;99.90
17346;DHT22;8790;53.590;10.002;2022-08-26T16:26:06;25.30;99.90